Time,TemperatureF,DewpointF,PressureIn,WindDirection,WindDirectionDegrees,WindSpeedMPH,WindSpeedGustMPH,Humidity,HourlyPrecipIn,Conditions,Clouds,dailyrainin,SoftwareType,DateUTC
2013-07-17 00:11:00,74.4,74.0,30.27,SE,127,0.0,0.0,97,0.00,,,0.00,weatherlink.com 1.10,2013-07-17 04:11:00,
2013-07-17 00:26:00,74.1,73.0,30.27,SE,128,0.0,0.0,97,0.00,,,0.00,weatherlink.com 1.10,2013-07-17 04:26:00,
2013-07-17 00:42:00,73.8,73.0,30.27,SE,127,0.0,0.0,97,0.00,,,0.00,weatherlink.com 1.10,2013-07-17 04:42:00,
2013-07-17 00:57:00,73.6,73.0,30.27,SE,127,0.0,0.0,97,0.00,,,0.00,weatherlink.com 1.10,2013-07-17 04:57:00,
2013-07-17 01:12:00,73.3,72.0,30.27,SE,127,0.0,0.0,97,0.00,,,0.00,weatherlink.com 1.10,2013-07-17 05:12:00,
2013-07-17 01:27:00,73.1,72.0,30.27,SE,127,0.0,0.0,97,0.00,,,0.00,weatherlink.com 1.10,2013-07-17 05:27:00,
2013-07-17 01:42:00,72.9,72.0,30.27,SE,127,0.0,0.0,97,0.00,,,0.00,weatherlink.com 1.10,2013-07-17 05:42:00,
2013-07-17 01:57:00,72.8,72.0,30.27,SE,127,0.0,0.0,97,0.00,,,0.00,weatherlink.com 1.10,2013-07-17 05:57:00,
2013-07-17 02:12:00,72.7,72.0,30.27,SE,127,0.0,0.0,97,0.00,,,0.00,weatherlink.com 1.10,2013-07-17 06:12:00,
2013-07-17 02:27:00,72.7,72.0,30.27,SE,127,0.0,0.0,97,0.00,,,0.00,weatherlink.com 1.10,2013-07-17 06:27:00,
2013-07-17 02:42:00,72.9,72.0,30.27,SE,127,0.0,0.0,98,0.00,,,0.00,weatherlink.com 1.10,2013-07-17 06:42:00,
2013-07-17 02:57:00,73.2,72.0,30.27,SE,127,0.0,0.0,97,0.00,,,0.00,weatherlink.com 1.10,2013-07-17 06:57:00,
2013-07-17 03:12:00,73.5,72.0,30.27,East,89,0.0,2.0,96,0.00,,,0.00,weatherlink.com 1.10,2013-07-17 07:12:00,
2013-07-17 03:27:00,74.0,72.0,30.27,East,89,0.0,1.0,94,0.00,,,0.00,weatherlink.com 1.10,2013-07-17 07:27:00,
2013-07-17 03:42:00,74.2,72.0,30.27,SSW,204,0.0,1.0,93,0.00,,,0.00,weatherlink.com 1.10,2013-07-17 07:42:00,
2013-07-17 03:57:00,74.7,72.0,30.27,SSW,200,0.0,0.0,92,0.00,,,0.00,weatherlink.com 1.10,2013-07-17 07:57:00,
2013-07-17 04:12:00,74.9,72.0,30.27,SSE,156,0.0,1.0,91,0.00,,,0.00,weatherlink.com 1.10,2013-07-17 08:12:00,
2013-07-17 04:27:00,75.2,73.0,30.27,East,86,0.0,0.0,91,0.00,,,0.00,weatherlink.com 1.10,2013-07-17 08:27:00,
2013-07-17 04:42:00,74.6,72.0,30.28,East,86,0.0,0.0,92,0.00,,,0.00,weatherlink.com 1.10,2013-07-17 08:42:00,
2013-07-17 04:57:00,73.9,72.0,30.27,East,86,0.0,0.0,93,0.00,,,0.00,weatherlink.com 1.10,2013-07-17 08:57:00,
2013-07-17 05:12:00,73.3,72.0,30.28,East,86,0.0,0.0,94,0.00,,,0.00,weatherlink.com 1.10,2013-07-17 09:12:00,
2013-07-17 05:27:00,73.0,72.0,30.28,East,86,0.0,0.0,95,0.00,,,0.00,weatherlink.com 1.10,2013-07-17 09:27:00,
2013-07-17 05:42:00,72.8,71.0,30.28,East,88,0.0,1.0,95,0.00,,,0.00,weatherlink.com 1.10,2013-07-17 09:42:00,
2013-07-17 05:57:00,72.6,71.0,30.29,East,88,0.0,0.0,95,0.00,,,0.00,weatherlink.com 1.10,2013-07-17 09:57:00,
2013-07-17 06:12:00,72.4,71.0,30.29,East,88,0.0,0.0,96,0.00,,,0.00,weatherlink.com 1.10,2013-07-17 10:12:00,
2013-07-17 06:27:00,72.2,71.0,30.29,East,87,0.0,0.0,96,0.00,,,0.00,weatherlink.com 1.10,2013-07-17 10:27:00,
2013-07-17 06:42:00,72.1,71.0,30.30,East,88,0.0,0.0,97,0.00,,,0.00,weatherlink.com 1.10,2013-07-17 10:42:00,
2013-07-17 06:57:00,72.0,71.0,30.30,East,87,0.0,0.0,97,0.00,,,0.00,weatherlink.com 1.10,2013-07-17 10:57:00,
2013-07-17 07:12:00,72.2,71.0,30.30,East,88,0.0,0.0,97,0.00,,,0.00,weatherlink.com 1.10,2013-07-17 11:12:00,
2013-07-17 07:27:00,72.6,72.0,30.30,East,88,0.0,0.0,97,0.00,,,0.00,weatherlink.com 1.10,2013-07-17 11:27:00,
2013-07-17 07:42:00,73.3,72.0,30.31,East,87,0.0,0.0,97,0.00,,,0.00,weatherlink.com 1.10,2013-07-17 11:42:00,
2013-07-17 07:57:00,74.7,73.0,30.30,East,89,0.0,1.0,94,0.00,,,0.00,weatherlink.com 1.10,2013-07-17 11:57:00,
2013-07-17 08:12:00,76.0,73.0,30.30,East,86,0.0,1.0,91,0.00,,,0.00,weatherlink.com 1.10,2013-07-17 12:12:00,
2013-07-17 08:27:00,77.2,74.0,30.30,SW,231,0.0,2.0,89,0.00,,,0.00,weatherlink.com 1.10,2013-07-17 12:27:00,
2013-07-17 08:42:00,79.0,75.0,30.31,ESE,117,0.0,2.0,86,0.00,,,0.00,weatherlink.com 1.10,2013-07-17 12:42:00,
2013-07-17 08:57:00,80.4,75.0,30.31,ESE,117,0.0,1.0,83,0.00,,,0.00,weatherlink.com 1.10,2013-07-17 12:57:00,
2013-07-17 09:12:00,81.9,75.0,30.31,SE,133,0.0,4.0,80,0.00,,,0.00,weatherlink.com 1.10,2013-07-17 13:12:00,
2013-07-17 09:28:00,82.9,75.0,30.30,East,90,0.0,2.0,78,0.00,,,0.00,weatherlink.com 1.10,2013-07-17 13:28:00,
2013-07-17 09:43:00,83.2,76.0,30.30,ENE,68,0.0,3.0,79,0.00,,,0.00,weatherlink.com 1.10,2013-07-17 13:43:00,
2013-07-17 09:58:00,84.2,76.0,30.30,WSW,248,2.0,2.0,77,0.00,,,0.00,weatherlink.com 1.10,2013-07-17 13:58:00,
2013-07-17 10:13:00,85.3,77.0,30.30,SSW,210,0.0,3.0,76,0.00,,,0.00,weatherlink.com 1.10,2013-07-17 14:13:00,
2013-07-17 10:28:00,86.2,77.0,30.30,North,1,1.0,2.0,74,0.00,,,0.00,weatherlink.com 1.10,2013-07-17 14:28:00,
2013-07-17 10:43:00,86.2,76.0,30.30,NNW,342,0.0,3.0,72,0.00,,,0.00,weatherlink.com 1.10,2013-07-17 14:43:00,
2013-07-17 10:58:00,86.7,77.0,30.29,NNW,334,1.0,2.0,72,0.00,,,0.00,weatherlink.com 1.10,2013-07-17 14:58:00,
2013-07-17 11:13:00,86.7,78.0,30.30,NE,41,0.0,2.0,76,0.00,,,0.00,weatherlink.com 1.10,2013-07-17 15:13:00,
2013-07-17 11:28:00,86.3,77.0,30.30,NNW,335,1.0,4.0,73,0.00,,,0.00,weatherlink.com 1.10,2013-07-17 15:28:00,
2013-07-17 11:43:00,85.9,78.0,30.29,NW,311,0.0,4.0,76,0.00,,,0.00,weatherlink.com 1.10,2013-07-17 15:43:00,
2013-07-17 11:58:00,87.2,78.0,30.29,NW,307,0.0,3.0,73,0.00,,,0.00,weatherlink.com 1.10,2013-07-17 15:58:00,
2013-07-17 12:13:00,87.1,78.0,30.28,SE,124,2.0,3.0,74,0.00,,,0.00,weatherlink.com 1.10,2013-07-17 16:13:00,
2013-07-17 12:28:00,87.4,77.0,30.28,NNE,16,0.0,2.0,71,0.00,,,0.00,weatherlink.com 1.10,2013-07-17 16:28:00,
2013-07-17 12:43:00,86.5,77.0,30.28,NE,54,1.0,1.0,73,0.00,,,0.00,weatherlink.com 1.10,2013-07-17 16:43:00,
2013-07-17 12:58:00,86.7,78.0,30.27,NW,321,0.0,2.0,76,0.00,,,0.00,weatherlink.com 1.10,2013-07-17 16:58:00,
2013-07-17 13:13:00,86.5,78.0,30.27,ESE,108,0.0,2.0,75,0.00,,,0.00,weatherlink.com 1.10,2013-07-17 17:13:00,
2013-07-17 13:28:00,88.2,77.0,30.27,NW,320,0.0,3.0,69,0.00,,,0.00,weatherlink.com 1.10,2013-07-17 17:28:00,
2013-07-17 13:43:00,88.1,78.0,30.27,WSW,249,0.0,1.0,73,0.00,,,0.00,weatherlink.com 1.10,2013-07-17 17:43:00,
2013-07-17 13:58:00,89.5,78.0,30.26,East,101,1.0,3.0,68,0.00,,,0.00,weatherlink.com 1.10,2013-07-17 17:58:00,
2013-07-17 14:13:00,88.7,77.0,30.26,SW,229,0.0,3.0,68,0.00,,,0.00,weatherlink.com 1.10,2013-07-17 18:13:00,
2013-07-17 14:28:00,88.6,76.0,30.25,NNW,334,0.0,3.0,67,0.00,,,0.00,weatherlink.com 1.10,2013-07-17 18:28:00,
2013-07-17 14:43:00,88.9,77.0,30.25,NW,316,2.0,6.0,67,0.00,,,0.00,weatherlink.com 1.10,2013-07-17 18:43:00,
2013-07-17 14:58:00,89.5,77.0,30.25,NW,316,3.0,4.0,66,0.00,,,0.00,weatherlink.com 1.10,2013-07-17 18:58:00,
2013-07-17 15:13:00,89.7,76.0,30.24,NNW,328,0.0,3.0,64,0.00,,,0.00,weatherlink.com 1.10,2013-07-17 19:13:00,
2013-07-17 15:28:00,89.7,76.0,30.23,North,351,2.0,4.0,64,0.00,,,0.00,weatherlink.com 1.10,2013-07-17 19:28:00,
2013-07-17 15:43:00,89.3,77.0,30.23,NW,323,0.0,2.0,66,0.00,,,0.00,weatherlink.com 1.10,2013-07-17 19:43:00,
2013-07-17 15:58:00,89.6,76.0,30.23,NNW,327,0.0,4.0,64,0.00,,,0.00,weatherlink.com 1.10,2013-07-17 19:58:00,
2013-07-17 16:13:00,90.1,76.0,30.23,SW,226,2.0,8.0,64,0.00,,,0.00,weatherlink.com 1.10,2013-07-17 20:13:00,
2013-07-17 16:28:00,89.7,76.0,30.23,West,276,0.0,3.0,65,0.00,,,0.00,weatherlink.com 1.10,2013-07-17 20:28:00,
2013-07-17 16:43:00,89.9,77.0,30.22,South,169,1.0,6.0,65,0.00,,,0.00,weatherlink.com 1.10,2013-07-17 20:43:00,
2013-07-17 16:58:00,89.2,75.0,30.22,North,350,1.0,4.0,63,0.00,,,0.00,weatherlink.com 1.10,2013-07-17 20:58:00,
2013-07-17 17:13:00,89.2,75.0,30.21,NW,319,0.0,3.0,63,0.00,,,0.00,weatherlink.com 1.10,2013-07-17 21:13:00,
2013-07-17 17:28:00,88.4,76.0,30.21,North,8,1.0,2.0,66,0.00,,,0.00,weatherlink.com 1.10,2013-07-17 21:28:00,
2013-07-17 17:43:00,87.8,74.0,30.20,North,357,0.0,6.0,63,0.00,,,0.00,weatherlink.com 1.10,2013-07-17 21:43:00,
2013-07-17 17:59:00,87.2,75.0,30.21,North,8,0.0,5.0,67,0.00,,,0.00,weatherlink.com 1.10,2013-07-17 21:59:00,
2013-07-17 18:14:00,86.7,74.0,30.20,NW,323,0.0,5.0,66,0.00,,,0.00,weatherlink.com 1.10,2013-07-17 22:14:00,
2013-07-17 18:29:00,86.4,75.0,30.20,NW,314,0.0,3.0,68,0.00,,,0.00,weatherlink.com 1.10,2013-07-17 22:29:00,
2013-07-17 18:44:00,86.1,73.0,30.20,North,359,0.0,2.0,66,0.00,,,0.00,weatherlink.com 1.10,2013-07-17 22:44:00,
2013-07-17 18:59:00,85.5,73.0,30.20,ENE,65,1.0,2.0,66,0.00,,,0.00,weatherlink.com 1.10,2013-07-17 22:59:00,
2013-07-17 19:14:00,85.0,73.0,30.19,SE,146,0.0,1.0,68,0.00,,,0.00,weatherlink.com 1.10,2013-07-17 23:14:00,
2013-07-17 19:29:00,84.6,73.0,30.19,SSW,207,0.0,3.0,69,0.00,,,0.00,weatherlink.com 1.10,2013-07-17 23:29:00,
2013-07-17 19:44:00,84.0,74.0,30.18,SW,231,0.0,1.0,72,0.00,,,0.00,weatherlink.com 1.10,2013-07-17 23:44:00,
2013-07-17 20:00:00,83.3,75.0,30.18,SW,215,0.0,2.0,75,0.00,,,0.00,weatherlink.com 1.10,2013-07-18 00:00:00,
2013-07-17 20:14:00,82.8,73.0,30.18,ESE,113,0.0,0.0,73,0.00,,,0.00,weatherlink.com 1.10,2013-07-18 00:14:00,
2013-07-17 20:29:00,82.2,73.0,30.18,WSW,252,0.0,0.0,73,0.00,,,0.00,weatherlink.com 1.10,2013-07-18 00:29:00,
2013-07-17 20:43:00,81.0,74.0,30.18,WSW,252,0.0,0.0,78,0.00,,,0.00,weatherlink.com 1.10,2013-07-18 00:43:00,
2013-07-17 20:58:00,79.4,73.0,30.18,WSW,252,0.0,0.0,81,0.00,,,0.00,weatherlink.com 1.10,2013-07-18 00:58:00,
2013-07-17 21:14:00,78.2,73.0,30.18,WSW,252,0.0,0.0,84,0.00,,,0.00,weatherlink.com 1.10,2013-07-18 01:14:00,
2013-07-17 21:29:00,77.3,73.0,30.18,WSW,252,0.0,0.0,87,0.00,,,0.00,weatherlink.com 1.10,2013-07-18 01:29:00,
2013-07-17 21:43:00,76.6,73.0,30.18,WSW,252,0.0,0.0,89,0.00,,,0.00,weatherlink.com 1.10,2013-07-18 01:43:00,
2013-07-17 21:58:00,75.9,73.0,30.18,WSW,252,0.0,0.0,90,0.00,,,0.00,weatherlink.com 1.10,2013-07-18 01:58:00,
2013-07-17 22:13:00,75.4,73.0,30.19,WSW,252,0.0,0.0,92,0.00,,,0.00,weatherlink.com 1.10,2013-07-18 02:13:00,
2013-07-17 22:28:00,75.0,73.0,30.19,WSW,252,0.0,0.0,92,0.00,,,0.00,weatherlink.com 1.10,2013-07-18 02:28:00,
2013-07-17 22:44:00,74.6,73.0,30.19,WSW,252,0.0,0.0,93,0.00,,,0.00,weatherlink.com 1.10,2013-07-18 02:44:00,
2013-07-17 22:58:00,74.3,72.0,30.19,WSW,252,0.0,0.0,93,0.00,,,0.00,weatherlink.com 1.10,2013-07-18 02:58:00,
2013-07-17 23:13:00,74.0,72.0,30.19,WSW,252,0.0,0.0,94,0.00,,,0.00,weatherlink.com 1.10,2013-07-18 03:13:00,
2013-07-17 23:28:00,73.8,72.0,30.19,WSW,252,0.0,0.0,95,0.00,,,0.00,weatherlink.com 1.10,2013-07-18 03:28:00,
2013-07-17 23:43:00,73.6,72.0,30.18,WSW,252,0.0,0.0,95,0.00,,,0.00,weatherlink.com 1.10,2013-07-18 03:43:00,
2013-07-17 23:58:00,73.5,72.0,30.19,WSW,252,0.0,0.0,95,0.00,,,0.00,weatherlink.com 1.10,2013-07-18 03:58:00,